sensor_id;sensor_type;location;lat;lon;timestamp;pressure;altitude;pressure_sealevel;temperature;humidity
23318;BME280;11831;55.918;37.746;2022-09-09T00:01:19;100065.81;;;8.97;0.00
23318;BME280;11831;55.918;37.746;2022-09-09T00:03:50;100063.78;;;9.06;0.00
23318;BME280;11831;55.918;37.746;2022-09-09T00:06:53;100070.75;;;9.07;0.00
23318;BME280;11831;55.918;37.746;2022-09-09T00:09:13;100077.47;;;8.83;0.00
23318;BME280;11831;55.918;37.746;2022-09-09T00:11:51;100078.59;;;9.28;0.00
23318;BME280;11831;55.918;37.746;2022-09-09T00:16:54;100075.47;;;9.12;0.00
23318;BME280;11831;55.918;37.746;2022-09-09T00:19:27;100083.72;;;9.23;0.00
23318;BME280;11831;55.918;37.746;2022-09-09T00:22:03;100089.06;;;9.23;0.00
23318;BME280;11831;55.918;37.746;2022-09-09T00:30:16;100081.69;;;9.19;0.00
23318;BME280;11831;55.918;37.746;2022-09-09T00:32:46;100080.66;;;9.20;0.00
23318;BME280;11831;55.918;37.746;2022-09-09T00:35:18;100088.66;;;9.26;0.00
23318;BME280;11831;55.918;37.746;2022-09-09T00:37:47;100084.72;;;9.16;0.00
23318;BME280;11831;55.918;37.746;2022-09-09T00:40:29;100093.88;;;8.80;0.00
23318;BME280;11831;55.918;37.746;2022-09-09T00:43:43;100094.16;;;8.98;0.00
23318;BME280;11831;55.918;37.746;2022-09-09T00:45:53;100091.25;;;8.93;0.00
23318;BME280;11831;55.918;37.746;2022-09-09T00:48:22;100102.16;;;8.98;0.00
23318;BME280;11831;55.918;37.746;2022-09-09T00:51:15;100098.78;;;8.77;0.00
23318;BME280;11831;55.918;37.746;2022-09-09T00:56:32;100101.75;;;9.01;0.00
23318;BME280;11831;55.918;37.746;2022-09-09T00:59:05;100106.06;;;9.09;0.00
23318;BME280;11831;55.918;37.746;2022-09-09T01:01:36;100110.06;;;8.79;0.00
23318;BME280;11831;55.918;37.746;2022-09-09T01:04:02;100114.25;;;9.08;0.00
23318;BME280;11831;55.918;37.746;2022-09-09T01:09:11;100116.50;;;8.91;0.00
23318;BME280;11831;55.918;37.746;2022-09-09T01:17:10;100120.53;;;8.74;0.00
23318;BME280;11831;55.918;37.746;2022-09-09T01:24:40;100114.84;;;8.90;0.00
23318;BME280;11831;55.918;37.746;2022-09-09T01:27:11;100125.50;;;8.90;0.00
23318;BME280;11831;55.918;37.746;2022-09-09T01:29:39;100131.00;;;8.75;0.00
23318;BME280;11831;55.918;37.746;2022-09-09T01:34:50;100125.44;;;8.70;0.00
23318;BME280;11831;55.918;37.746;2022-09-09T01:37:17;100121.84;;;8.50;0.00
23318;BME280;11831;55.918;37.746;2022-09-09T01:39:43;100121.34;;;8.33;0.00
23318;BME280;11831;55.918;37.746;2022-09-09T01:42:12;100124.03;;;8.81;0.00
23318;BME280;11831;55.918;37.746;2022-09-09T01:44:39;100130.31;;;8.60;0.00
23318;BME280;11831;55.918;37.746;2022-09-09T01:47:05;100133.44;;;8.77;0.00
23318;BME280;11831;55.918;37.746;2022-09-09T01:49:32;100141.06;;;8.86;0.00
23318;BME280;11831;55.918;37.746;2022-09-09T01:51:59;100134.34;;;8.97;0.00
23318;BME280;11831;55.918;37.746;2022-09-09T01:54:27;100136.81;;;8.98;0.00
23318;BME280;11831;55.918;37.746;2022-09-09T01:59:41;100138.38;;;8.80;0.00
23318;BME280;11831;55.918;37.746;2022-09-09T02:02:11;100148.84;;;8.75;0.00
23318;BME280;11831;55.918;37.746;2022-09-09T02:04:47;100141.00;;;8.66;0.00
23318;BME280;11831;55.918;37.746;2022-09-09T02:09:50;100147.16;;;8.67;0.00
23318;BME280;11831;55.918;37.746;2022-09-09T02:12:18;100154.56;;;8.71;0.00
23318;BME280;11831;55.918;37.746;2022-09-09T02:14:48;100154.59;;;8.85;0.00
23318;BME280;11831;55.918;37.746;2022-09-09T02:17:18;100152.75;;;8.85;0.00
23318;BME280;11831;55.918;37.746;2022-09-09T02:19:49;100154.16;;;8.75;0.00
23318;BME280;11831;55.918;37.746;2022-09-09T02:22:17;100153.94;;;8.69;0.00
23318;BME280;11831;55.918;37.746;2022-09-09T02:24:45;100155.28;;;8.93;0.00
23318;BME280;11831;55.918;37.746;2022-09-09T02:27:12;100159.44;;;9.16;0.00
23318;BME280;11831;55.918;37.746;2022-09-09T02:29:41;100159.59;;;9.01;0.00
23318;BME280;11831;55.918;37.746;2022-09-09T02:32:09;100163.59;;;8.77;0.00
23318;BME280;11831;55.918;37.746;2022-09-09T02:34:38;100163.06;;;8.54;0.00
23318;BME280;11831;55.918;37.746;2022-09-09T02:37:06;100187.25;;;8.52;0.00
23318;BME280;11831;55.918;37.746;2022-09-09T02:39:34;100181.91;;;8.46;0.00
23318;BME280;11831;55.918;37.746;2022-09-09T02:42:00;100180.81;;;8.68;0.00
23318;BME280;11831;55.918;37.746;2022-09-09T02:44:27;100186.31;;;8.60;0.00
23318;BME280;11831;55.918;37.746;2022-09-09T02:52:29;100198.72;;;8.25;0.00
23318;BME280;11831;55.918;37.746;2022-09-09T02:54:57;100196.53;;;8.28;0.00
23318;BME280;11831;55.918;37.746;2022-09-09T02:57:27;100204.22;;;8.17;0.00
23318;BME280;11831;55.918;37.746;2022-09-09T02:59:55;100209.09;;;8.34;0.00
23318;BME280;11831;55.918;37.746;2022-09-09T03:02:22;100211.94;;;8.61;0.00
23318;BME280;11831;55.918;37.746;2022-09-09T03:04:49;100211.78;;;8.69;0.00
23318;BME280;11831;55.918;37.746;2022-09-09T03:07:17;100210.13;;;8.68;0.00
23318;BME280;11831;55.918;37.746;2022-09-09T03:09:44;100202.59;;;8.78;0.00
23318;BME280;11831;55.918;37.746;2022-09-09T03:12:10;100217.56;;;8.79;0.00
23318;BME280;11831;55.918;37.746;2022-09-09T03:14:37;100200.72;;;8.72;0.00
23318;BME280;11831;55.918;37.746;2022-09-09T03:17:04;100210.22;;;8.25;0.00
23318;BME280;11831;55.918;37.746;2022-09-09T03:19:30;100204.44;;;8.84;0.00
23318;BME280;11831;55.918;37.746;2022-09-09T03:21:57;100215.94;;;8.50;0.00
23318;BME280;11831;55.918;37.746;2022-09-09T03:24:24;100216.84;;;8.57;0.00
23318;BME280;11831;55.918;37.746;2022-09-09T03:26:50;100213.81;;;8.67;0.00
23318;BME280;11831;55.918;37.746;2022-09-09T03:29:16;100219.59;;;8.77;0.00
23318;BME280;11831;55.918;37.746;2022-09-09T03:31:44;100209.09;;;8.69;0.00
23318;BME280;11831;55.918;37.746;2022-09-09T03:34:10;100216.87;;;9.12;0.00
23318;BME280;11831;55.918;37.746;2022-09-09T03:36:36;100205.66;;;8.82;0.00
23318;BME280;11831;55.918;37.746;2022-09-09T03:39:03;100219.00;;;8.82;0.00
23318;BME280;11831;55.918;37.746;2022-09-09T03:41:29;100217.66;;;8.92;0.00
23318;BME280;11831;55.918;37.746;2022-09-09T03:43:56;100220.72;;;8.89;0.00
23318;BME280;11831;55.918;37.746;2022-09-09T03:46:23;100225.94;;;8.69;0.00
23318;BME280;11831;55.918;37.746;2022-09-09T03:48:50;100232.94;;;8.77;0.00
23318;BME280;11831;55.918;37.746;2022-09-09T03:51:18;100230.69;;;9.22;0.00
23318;BME280;11831;55.918;37.746;2022-09-09T03:53:44;100236.06;;;8.87;0.00
23318;BME280;11831;55.918;37.746;2022-09-09T03:56:11;100234.03;;;8.89;0.00
23318;BME280;11831;55.918;37.746;2022-09-09T03:58:37;100241.75;;;8.78;0.00
23318;BME280;11831;55.918;37.746;2022-09-09T04:03:30;100245.34;;;8.91;0.00
23318;BME280;11831;55.918;37.746;2022-09-09T04:05:57;100237.56;;;8.96;0.00
23318;BME280;11831;55.918;37.746;2022-09-09T04:08:24;100227.75;;;9.10;0.00
23318;BME280;11831;55.918;37.746;2022-09-09T04:10:53;100238.28;;;9.25;0.00
23318;BME280;11831;55.918;37.746;2022-09-09T04:13:23;100236.66;;;9.24;0.00
23318;BME280;11831;55.918;37.746;2022-09-09T04:15:50;100245.41;;;9.11;0.00
23318;BME280;11831;55.918;37.746;2022-09-09T04:18:16;100243.87;;;9.43;0.00
23318;BME280;11831;55.918;37.746;2022-09-09T04:20:42;100239.56;;;9.42;0.00
23318;BME280;11831;55.918;37.746;2022-09-09T04:23:09;100243.31;;;9.00;0.00
23318;BME280;11831;55.918;37.746;2022-09-09T04:25:35;100245.75;;;8.95;0.00
23318;BME280;11831;55.918;37.746;2022-09-09T04:28:02;100248.59;;;9.41;0.00
23318;BME280;11831;55.918;37.746;2022-09-09T04:30:28;100246.31;;;9.31;0.00
23318;BME280;11831;55.918;37.746;2022-09-09T04:32:54;100243.47;;;9.40;0.00
23318;BME280;11831;55.918;37.746;2022-09-09T04:35:20;100250.13;;;9.70;0.00
23318;BME280;11831;55.918;37.746;2022-09-09T04:37:46;100251.69;;;9.45;0.00
23318;BME280;11831;55.918;37.746;2022-09-09T04:40:14;100255.03;;;9.53;0.00
23318;BME280;11831;55.918;37.746;2022-09-09T04:42:40;100244.59;;;9.17;0.00
23318;BME280;11831;55.918;37.746;2022-09-09T04:45:10;100255.56;;;9.29;0.00
23318;BME280;11831;55.918;37.746;2022-09-09T04:47:37;100260.69;;;9.30;0.00
23318;BME280;11831;55.918;37.746;2022-09-09T04:50:03;100247.16;;;9.39;0.00
23318;BME280;11831;55.918;37.746;2022-09-09T04:52:29;100250.84;;;9.38;0.00
23318;BME280;11831;55.918;37.746;2022-09-09T04:54:55;100260.84;;;9.96;0.00
23318;BME280;11831;55.918;37.746;2022-09-09T04:57:21;100258.00;;;9.24;0.00
23318;BME280;11831;55.918;37.746;2022-09-09T04:59:47;100259.34;;;9.68;0.00
23318;BME280;11831;55.918;37.746;2022-09-09T05:02:13;100257.91;;;9.65;0.00
23318;BME280;11831;55.918;37.746;2022-09-09T05:04:39;100260.78;;;9.63;0.00
23318;BME280;11831;55.918;37.746;2022-09-09T05:07:06;100266.12;;;9.70;0.00
23318;BME280;11831;55.918;37.746;2022-09-09T05:09:32;100267.22;;;9.95;0.00
23318;BME280;11831;55.918;37.746;2022-09-09T05:11:58;100262.91;;;9.88;0.00
23318;BME280;11831;55.918;37.746;2022-09-09T05:14:25;100268.25;;;9.81;0.00
23318;BME280;11831;55.918;37.746;2022-09-09T05:16:52;100269.47;;;9.85;0.00
23318;BME280;11831;55.918;37.746;2022-09-09T05:19:18;100275.25;;;10.02;0.00
23318;BME280;11831;55.918;37.746;2022-09-09T05:21:45;100269.09;;;10.15;0.00
23318;BME280;11831;55.918;37.746;2022-09-09T05:24:12;100282.16;;;9.70;0.00
23318;BME280;11831;55.918;37.746;2022-09-09T05:26:38;100279.75;;;9.88;0.00
23318;BME280;11831;55.918;37.746;2022-09-09T05:29:04;100276.50;;;10.13;0.00
23318;BME280;11831;55.918;37.746;2022-09-09T05:31:30;100279.12;;;10.00;0.00
23318;BME280;11831;55.918;37.746;2022-09-09T05:33:56;100285.94;;;10.09;0.00
23318;BME280;11831;55.918;37.746;2022-09-09T05:36:23;100282.25;;;10.16;0.00
23318;BME280;11831;55.918;37.746;2022-09-09T05:38:49;100288.37;;;9.90;0.00
23318;BME280;11831;55.918;37.746;2022-09-09T05:41:16;100284.34;;;10.41;0.00
23318;BME280;11831;55.918;37.746;2022-09-09T05:43:43;100285.78;;;10.30;0.00
23318;BME280;11831;55.918;37.746;2022-09-09T05:46:11;100281.81;;;10.85;0.00
23318;BME280;11831;55.918;37.746;2022-09-09T05:48:41;100284.53;;;10.72;0.00
23318;BME280;11831;55.918;37.746;2022-09-09T05:51:08;100287.16;;;10.85;0.00
23318;BME280;11831;55.918;37.746;2022-09-09T05:53:35;100286.75;;;10.88;0.00
23318;BME280;11831;55.918;37.746;2022-09-09T05:56:05;100287.78;;;10.87;0.00
23318;BME280;11831;55.918;37.746;2022-09-09T05:58:32;100293.75;;;10.83;0.00
23318;BME280;11831;55.918;37.746;2022-09-09T06:03:33;100298.53;;;11.32;0.00
23318;BME280;11831;55.918;37.746;2022-09-09T06:06:00;100297.00;;;11.05;0.00
23318;BME280;11831;55.918;37.746;2022-09-09T06:08:26;100297.19;;;11.10;0.00
23318;BME280;11831;55.918;37.746;2022-09-09T06:10:53;100295.22;;;11.43;0.00
23318;BME280;11831;55.918;37.746;2022-09-09T06:13:19;100304.69;;;11.46;0.00
23318;BME280;11831;55.918;37.746;2022-09-09T06:15:51;100299.50;;;11.51;0.00
23318;BME280;11831;55.918;37.746;2022-09-09T06:18:18;100305.66;;;10.94;0.00
23318;BME280;11831;55.918;37.746;2022-09-09T06:20:57;100304.69;;;10.75;0.00
23318;BME280;11831;55.918;37.746;2022-09-09T06:23:24;100314.75;;;10.66;0.00
23318;BME280;11831;55.918;37.746;2022-09-09T06:25:51;100320.31;;;10.78;0.00
23318;BME280;11831;55.918;37.746;2022-09-09T06:28:18;100316.41;;;10.80;0.00
23318;BME280;11831;55.918;37.746;2022-09-09T06:30:44;100322.09;;;11.10;0.00
23318;BME280;11831;55.918;37.746;2022-09-09T06:33:10;100323.12;;;11.09;0.00
23318;BME280;11831;55.918;37.746;2022-09-09T06:35:37;100326.03;;;11.66;0.00
23318;BME280;11831;55.918;37.746;2022-09-09T06:38:03;100331.69;;;12.21;0.00
23318;BME280;11831;55.918;37.746;2022-09-09T06:40:29;100330.03;;;11.95;0.00
23318;BME280;11831;55.918;37.746;2022-09-09T06:42:59;100328.94;;;12.02;0.00
23318;BME280;11831;55.918;37.746;2022-09-09T06:45:27;100329.81;;;11.45;0.00
23318;BME280;11831;55.918;37.746;2022-09-09T06:47:55;100325.25;;;11.52;0.00
23318;BME280;11831;55.918;37.746;2022-09-09T06:50:21;100319.00;;;11.71;0.00
23318;BME280;11831;55.918;37.746;2022-09-09T06:52:47;100330.66;;;11.90;0.00
23318;BME280;11831;55.918;37.746;2022-09-09T06:55:14;100328.28;;;11.62;0.00
23318;BME280;11831;55.918;37.746;2022-09-09T06:57:41;100325.13;;;12.17;0.00
23318;BME280;11831;55.918;37.746;2022-09-09T07:00:08;100334.63;;;12.44;0.00
23318;BME280;11831;55.918;37.746;2022-09-09T07:02:34;100345.44;;;12.62;0.00
23318;BME280;11831;55.918;37.746;2022-09-09T07:05:04;100332.34;;;12.72;0.00
23318;BME280;11831;55.918;37.746;2022-09-09T07:07:30;100340.16;;;12.74;0.00
23318;BME280;11831;55.918;37.746;2022-09-09T07:09:56;100335.75;;;12.61;0.00
23318;BME280;11831;55.918;37.746;2022-09-09T07:12:23;100350.06;;;12.98;0.00
23318;BME280;11831;55.918;37.746;2022-09-09T07:14:49;100347.75;;;13.02;0.00
23318;BME280;11831;55.918;37.746;2022-09-09T07:17:15;100342.19;;;12.79;0.00
23318;BME280;11831;55.918;37.746;2022-09-09T07:19:41;100344.75;;;12.92;0.00
23318;BME280;11831;55.918;37.746;2022-09-09T07:22:09;100358.22;;;13.65;0.00
23318;BME280;11831;55.918;37.746;2022-09-09T07:24:36;100355.69;;;13.70;0.00
23318;BME280;11831;55.918;37.746;2022-09-09T07:27:02;100361.31;;;13.32;0.00
23318;BME280;11831;55.918;37.746;2022-09-09T07:29:29;100350.22;;;13.77;0.00
23318;BME280;11831;55.918;37.746;2022-09-09T07:31:55;100350.78;;;13.49;0.00
23318;BME280;11831;55.918;37.746;2022-09-09T07:34:21;100352.72;;;13.42;0.00
23318;BME280;11831;55.918;37.746;2022-09-09T07:36:47;100353.16;;;13.39;0.00
23318;BME280;11831;55.918;37.746;2022-09-09T07:39:15;100348.97;;;14.09;0.00
23318;BME280;11831;55.918;37.746;2022-09-09T07:41:45;100355.00;;;14.05;0.00
23318;BME280;11831;55.918;37.746;2022-09-09T07:44:12;100366.66;;;14.58;0.00
23318;BME280;11831;55.918;37.746;2022-09-09T07:46:39;100378.09;;;13.82;0.00
23318;BME280;11831;55.918;37.746;2022-09-09T07:49:07;100378.81;;;14.61;0.00
23318;BME280;11831;55.918;37.746;2022-09-09T07:51:35;100365.56;;;13.40;0.00
23318;BME280;11831;55.918;37.746;2022-09-09T07:54:04;100381.66;;;13.40;0.00
23318;BME280;11831;55.918;37.746;2022-09-09T07:56:30;100377.28;;;14.12;0.00
23318;BME280;11831;55.918;37.746;2022-09-09T07:58:57;100383.50;;;13.76;0.00
23318;BME280;11831;55.918;37.746;2022-09-09T08:01:31;100382.41;;;13.65;0.00
23318;BME280;11831;55.918;37.746;2022-09-09T08:03:58;100389.09;;;13.92;0.00
23318;BME280;11831;55.918;37.746;2022-09-09T08:06:27;100387.50;;;14.63;0.00
23318;BME280;11831;55.918;37.746;2022-09-09T08:08:54;100384.84;;;14.98;0.00
23318;BME280;11831;55.918;37.746;2022-09-09T08:11:21;100380.97;;;14.82;0.00
23318;BME280;11831;55.918;37.746;2022-09-09T08:13:49;100388.31;;;14.64;0.00
23318;BME280;11831;55.918;37.746;2022-09-09T08:16:16;100391.59;;;14.66;0.00
23318;BME280;11831;55.918;37.746;2022-09-09T08:18:42;100381.62;;;14.43;0.00
23318;BME280;11831;55.918;37.746;2022-09-09T08:21:11;100378.75;;;14.38;0.00
23318;BME280;11831;55.918;37.746;2022-09-09T08:23:40;100383.47;;;14.42;0.00
23318;BME280;11831;55.918;37.746;2022-09-09T08:26:11;100375.94;;;15.09;0.00
23318;BME280;11831;55.918;37.746;2022-09-09T08:28:37;100381.78;;;15.18;0.00
23318;BME280;11831;55.918;37.746;2022-09-09T08:31:13;100373.94;;;15.63;0.00
23318;BME280;11831;55.918;37.746;2022-09-09T08:33:40;100380.72;;;15.42;0.00
23318;BME280;11831;55.918;37.746;2022-09-09T08:36:08;100368.66;;;14.33;0.00
23318;BME280;11831;55.918;37.746;2022-09-09T08:38:35;100384.50;;;13.63;0.00
23318;BME280;11831;55.918;37.746;2022-09-09T08:43:47;100388.91;;;13.76;0.00
23318;BME280;11831;55.918;37.746;2022-09-09T08:48:55;100392.25;;;14.19;0.00
23318;BME280;11831;55.918;37.746;2022-09-09T08:51:26;100391.28;;;14.74;0.00
23318;BME280;11831;55.918;37.746;2022-09-09T08:53:53;100398.66;;;15.13;0.00
23318;BME280;11831;55.918;37.746;2022-09-09T08:56:22;100402.50;;;15.29;0.00
23318;BME280;11831;55.918;37.746;2022-09-09T08:58:53;100388.78;;;16.34;0.00
23318;BME280;11831;55.918;37.746;2022-09-09T09:04:26;100400.63;;;16.50;0.00
23318;BME280;11831;55.918;37.746;2022-09-09T09:10:39;100393.63;;;14.94;0.00
23318;BME280;11831;55.918;37.746;2022-09-09T09:12:35;100394.44;;;13.62;0.00
23318;BME280;11831;55.918;37.746;2022-09-09T09:15:08;100382.87;;;14.10;0.00
23318;BME280;11831;55.918;37.746;2022-09-09T09:17:37;100401.12;;;14.08;0.00
23318;BME280;11831;55.918;37.746;2022-09-09T09:20:05;100401.88;;;14.27;0.00
23318;BME280;11831;55.918;37.746;2022-09-09T09:22:47;100392.84;;;13.91;0.00
23318;BME280;11831;55.918;37.746;2022-09-09T09:25:31;100396.91;;;14.96;0.00
23318;BME280;11831;55.918;37.746;2022-09-09T09:28:10;100395.38;;;14.88;0.00
23318;BME280;11831;55.918;37.746;2022-09-09T09:30:39;100398.84;;;14.65;0.00
23318;BME280;11831;55.918;37.746;2022-09-09T09:35:52;100405.94;;;16.00;0.00
23318;BME280;11831;55.918;37.746;2022-09-09T09:38:24;100394.66;;;15.39;0.00
23318;BME280;11831;55.918;37.746;2022-09-09T09:40:54;100395.75;;;15.03;0.00
23318;BME280;11831;55.918;37.746;2022-09-09T09:43:24;100392.78;;;14.93;0.00
23318;BME280;11831;55.918;37.746;2022-09-09T09:45:51;100415.19;;;15.17;0.00
23318;BME280;11831;55.918;37.746;2022-09-09T09:48:17;100408.97;;;14.10;0.00
23318;BME280;11831;55.918;37.746;2022-09-09T09:51:25;100397.72;;;14.73;0.00
23318;BME280;11831;55.918;37.746;2022-09-09T09:53:34;100394.88;;;14.68;0.00
23318;BME280;11831;55.918;37.746;2022-09-09T09:56:05;100395.63;;;15.10;0.00
23318;BME280;11831;55.918;37.746;2022-09-09T09:58:33;100395.66;;;14.45;0.00
23318;BME280;11831;55.918;37.746;2022-09-09T10:01:00;100399.47;;;15.26;0.00
23318;BME280;11831;55.918;37.746;2022-09-09T10:03:28;100399.25;;;15.91;0.00
23318;BME280;11831;55.918;37.746;2022-09-09T10:05:54;100381.75;;;15.53;0.00
23318;BME280;11831;55.918;37.746;2022-09-09T10:08:20;100399.87;;;15.81;0.00
23318;BME280;11831;55.918;37.746;2022-09-09T10:13:44;100397.53;;;15.84;0.00
23318;BME280;11831;55.918;37.746;2022-09-09T10:16:53;100401.94;;;15.27;0.00
23318;BME280;11831;55.918;37.746;2022-09-09T10:26:35;100398.50;;;16.07;0.00
23318;BME280;11831;55.918;37.746;2022-09-09T10:31:55;100405.69;;;15.61;0.00
23318;BME280;11831;55.918;37.746;2022-09-09T10:36:50;100394.69;;;16.65;0.00
23318;BME280;11831;55.918;37.746;2022-09-09T10:57:05;100399.53;;;17.13;0.00
23318;BME280;11831;55.918;37.746;2022-09-09T10:59:34;100406.66;;;17.19;0.00
23318;BME280;11831;55.918;37.746;2022-09-09T11:02:07;100406.72;;;18.60;0.00
23318;BME280;11831;55.918;37.746;2022-09-09T11:04:40;100393.13;;;18.82;0.00
23318;BME280;11831;55.918;37.746;2022-09-09T11:07:09;100402.75;;;20.00;0.00
23318;BME280;11831;55.918;37.746;2022-09-09T11:09:38;100407.72;;;19.56;0.00
23318;BME280;11831;55.918;37.746;2022-09-09T11:12:06;100408.06;;;20.98;0.00
23318;BME280;11831;55.918;37.746;2022-09-09T11:14:41;100416.03;;;21.84;0.00
23318;BME280;11831;55.918;37.746;2022-09-09T11:17:10;100413.81;;;21.91;0.00
23318;BME280;11831;55.918;37.746;2022-09-09T11:19:39;100400.47;;;20.59;0.00
23318;BME280;11831;55.918;37.746;2022-09-09T11:24:49;100390.28;;;22.60;0.00
23318;BME280;11831;55.918;37.746;2022-09-09T11:32:34;100400.88;;;24.90;0.00
23318;BME280;11831;55.918;37.746;2022-09-09T11:40:58;100402.91;;;20.91;0.00
23318;BME280;11831;55.918;37.746;2022-09-09T11:43:47;100398.75;;;20.23;0.00
23318;BME280;11831;55.918;37.746;2022-09-09T11:46:12;100406.37;;;19.58;0.00
23318;BME280;11831;55.918;37.746;2022-09-09T11:48:42;100408.06;;;18.31;0.00
23318;BME280;11831;55.918;37.746;2022-09-09T11:59:34;100395.03;;;20.74;0.00
23318;BME280;11831;55.918;37.746;2022-09-09T12:01:41;100404.44;;;22.62;0.00
23318;BME280;11831;55.918;37.746;2022-09-09T12:07:21;100392.94;;;23.04;0.00
23318;BME280;11831;55.918;37.746;2022-09-09T12:09:30;100392.19;;;23.22;0.00
23318;BME280;11831;55.918;37.746;2022-09-09T12:12:07;100396.84;;;24.69;0.00
23318;BME280;11831;55.918;37.746;2022-09-09T12:14:35;100405.44;;;24.06;0.00
23318;BME280;11831;55.918;37.746;2022-09-09T12:17:36;100396.06;;;22.14;0.00
23318;BME280;11831;55.918;37.746;2022-09-09T12:20:01;100408.91;;;22.48;0.00
23318;BME280;11831;55.918;37.746;2022-09-09T12:22:43;100400.25;;;23.09;0.00
23318;BME280;11831;55.918;37.746;2022-09-09T12:30:19;100396.28;;;26.95;38.30
23318;BME280;11831;55.918;37.746;2022-09-09T12:32:47;100390.38;;;27.33;39.31
23318;BME280;11831;55.918;37.746;2022-09-09T12:35:23;100393.75;;;26.18;39.99
23318;BME280;11831;55.918;37.746;2022-09-09T12:40:23;100389.75;;;25.88;38.51
23318;BME280;11831;55.918;37.746;2022-09-09T12:42:50;100392.63;;;27.70;37.84
23318;BME280;11831;55.918;37.746;2022-09-09T12:47:50;100389.56;;;23.12;0.00
23318;BME280;11831;55.918;37.746;2022-09-09T12:50:20;100390.06;;;22.12;0.00
23318;BME280;11831;55.918;37.746;2022-09-09T12:52:48;100377.91;;;20.59;0.00
23318;BME280;11831;55.918;37.746;2022-09-09T12:55:17;100389.91;;;19.75;0.00
23318;BME280;11831;55.918;37.746;2022-09-09T12:57:43;100391.47;;;21.20;0.00
23318;BME280;11831;55.918;37.746;2022-09-09T13:00:17;100380.63;;;23.07;0.00
23318;BME280;11831;55.918;37.746;2022-09-09T13:02:48;100384.09;;;24.64;0.00
23318;BME280;11831;55.918;37.746;2022-09-09T13:05:26;100395.28;;;24.30;0.00
23318;BME280;11831;55.918;37.746;2022-09-09T13:08:02;100386.78;;;24.83;0.00
23318;BME280;11831;55.918;37.746;2022-09-09T13:10:31;100386.69;;;25.34;0.00
23318;BME280;11831;55.918;37.746;2022-09-09T13:12:59;100380.91;;;27.16;39.45
23318;BME280;11831;55.918;37.746;2022-09-09T13:15:26;100389.19;;;28.56;37.96
23318;BME280;11831;55.918;37.746;2022-09-09T13:17:55;100384.25;;;27.84;36.68
23318;BME280;11831;55.918;37.746;2022-09-09T13:20:22;100382.66;;;28.09;37.43
23318;BME280;11831;55.918;37.746;2022-09-09T13:22:49;100381.59;;;29.64;35.07
23318;BME280;11831;55.918;37.746;2022-09-09T13:27:50;100379.75;;;28.14;34.95
23318;BME280;11831;55.918;37.746;2022-09-09T13:30:19;100394.59;;;27.08;35.77
23318;BME280;11831;55.918;37.746;2022-09-09T13:35:58;100382.94;;;27.81;37.03
23318;BME280;11831;55.918;37.746;2022-09-09T13:38:25;100385.94;;;28.37;35.86
23318;BME280;11831;55.918;37.746;2022-09-09T13:43:28;100399.59;;;24.69;39.72
23318;BME280;11831;55.918;37.746;2022-09-09T13:45:56;100381.06;;;27.51;38.90
23318;BME280;11831;55.918;37.746;2022-09-09T13:48:23;100385.75;;;26.88;36.99
23318;BME280;11831;55.918;37.746;2022-09-09T13:51:00;100385.09;;;26.91;35.84
23318;BME280;11831;55.918;37.746;2022-09-09T13:53:26;100380.19;;;25.58;35.70
23318;BME280;11831;55.918;37.746;2022-09-09T13:55:53;100382.19;;;24.27;38.26
23318;BME280;11831;55.918;37.746;2022-09-09T13:58:19;100378.56;;;23.22;40.49
23318;BME280;11831;55.918;37.746;2022-09-09T14:00:47;100383.59;;;21.23;0.00
23318;BME280;11831;55.918;37.746;2022-09-09T14:03:13;100385.81;;;20.86;0.00
23318;BME280;11831;55.918;37.746;2022-09-09T14:05:39;100380.31;;;21.06;0.00
23318;BME280;11831;55.918;37.746;2022-09-09T14:08:06;100376.03;;;20.54;0.00
23318;BME280;11831;55.918;37.746;2022-09-09T14:10:33;100380.78;;;19.96;0.00
23318;BME280;11831;55.918;37.746;2022-09-09T14:13:03;100382.13;;;20.04;0.00
23318;BME280;11831;55.918;37.746;2022-09-09T14:15:29;100376.91;;;19.77;0.00
23318;BME280;11831;55.918;37.746;2022-09-09T14:17:55;100376.69;;;19.36;0.00
23318;BME280;11831;55.918;37.746;2022-09-09T14:20:21;100378.12;;;19.07;0.00
23318;BME280;11831;55.918;37.746;2022-09-09T14:22:47;100380.34;;;20.75;0.00
23318;BME280;11831;55.918;37.746;2022-09-09T14:25:14;100379.66;;;21.65;0.00
23318;BME280;11831;55.918;37.746;2022-09-09T14:27:40;100382.72;;;22.52;0.00
23318;BME280;11831;55.918;37.746;2022-09-09T14:30:06;100382.69;;;23.92;0.00
23318;BME280;11831;55.918;37.746;2022-09-09T14:32:33;100377.62;;;23.80;0.00
23318;BME280;11831;55.918;37.746;2022-09-09T14:34:59;100380.00;;;25.41;0.00
23318;BME280;11831;55.918;37.746;2022-09-09T14:37:25;100380.31;;;24.93;0.00
23318;BME280;11831;55.918;37.746;2022-09-09T14:39:52;100377.19;;;24.67;0.00
23318;BME280;11831;55.918;37.746;2022-09-09T14:42:20;100373.63;;;23.48;0.00
23318;BME280;11831;55.918;37.746;2022-09-09T14:44:46;100377.56;;;22.01;0.00
23318;BME280;11831;55.918;37.746;2022-09-09T14:47:13;100385.44;;;22.02;0.00
23318;BME280;11831;55.918;37.746;2022-09-09T14:49:39;100376.19;;;21.49;0.00
23318;BME280;11831;55.918;37.746;2022-09-09T14:52:05;100384.66;;;21.12;0.00
23318;BME280;11831;55.918;37.746;2022-09-09T14:54:32;100379.06;;;21.78;0.00
23318;BME280;11831;55.918;37.746;2022-09-09T14:56:58;100386.53;;;21.37;0.00
23318;BME280;11831;55.918;37.746;2022-09-09T14:59:24;100379.09;;;21.68;0.00
23318;BME280;11831;55.918;37.746;2022-09-09T15:01:50;100376.78;;;22.45;0.00
23318;BME280;11831;55.918;37.746;2022-09-09T15:04:17;100368.03;;;22.82;0.00
23318;BME280;11831;55.918;37.746;2022-09-09T15:06:44;100386.56;;;22.07;0.00
23318;BME280;11831;55.918;37.746;2022-09-09T15:09:14;100377.97;;;22.28;0.00
23318;BME280;11831;55.918;37.746;2022-09-09T15:11:40;100369.31;;;21.62;0.00
23318;BME280;11831;55.918;37.746;2022-09-09T15:14:07;100372.72;;;21.03;0.00